sensor_id;sensor_type;location;lat;lon;timestamp;P1;durP1;ratioP1;P2;durP2;ratioP2
57067;SDS011;43391;47.448;18.904;2022-11-04T00:01:51;54.60;;;32.50;;
57067;SDS011;43391;47.448;18.904;2022-11-04T00:04:18;54.63;;;31.60;;
57067;SDS011;43391;47.448;18.904;2022-11-04T00:06:45;50.20;;;31.88;;
57067;SDS011;43391;47.448;18.904;2022-11-04T00:09:13;50.25;;;31.17;;
57067;SDS011;43391;47.448;18.904;2022-11-04T00:11:41;54.03;;;32.03;;
57067;SDS011;43391;47.448;18.904;2022-11-04T00:14:26;53.45;;;32.15;;
57067;SDS011;43391;47.448;18.904;2022-11-04T00:16:54;51.40;;;31.52;;
57067;SDS011;43391;47.448;18.904;2022-11-04T00:19:38;52.78;;;31.60;;
57067;SDS011;43391;47.448;18.904;2022-11-04T00:22:21;57.60;;;32.42;;
57067;SDS011;43391;47.448;18.904;2022-11-04T00:25:05;54.00;;;32.75;;
57067;SDS011;43391;47.448;18.904;2022-11-04T00:27:49;51.40;;;30.83;;
57067;SDS011;43391;47.448;18.904;2022-11-04T00:30:33;52.17;;;31.27;;
57067;SDS011;43391;47.448;18.904;2022-11-04T00:32:58;51.33;;;31.08;;
57067;SDS011;43391;47.448;18.904;2022-11-04T00:35:48;50.50;;;30.73;;
57067;SDS011;43391;47.448;18.904;2022-11-04T00:38:15;53.67;;;31.00;;
57067;SDS011;43391;47.448;18.904;2022-11-04T00:40:40;53.90;;;31.50;;
57067;SDS011;43391;47.448;18.904;2022-11-04T00:43:06;49.05;;;31.58;;
57067;SDS011;43391;47.448;18.904;2022-11-04T00:45:31;50.08;;;30.88;;
57067;SDS011;43391;47.448;18.904;2022-11-04T00:47:56;52.05;;;32.50;;
57067;SDS011;43391;47.448;18.904;2022-11-04T00:50:22;52.65;;;31.92;;
57067;SDS011;43391;47.448;18.904;2022-11-04T00:52:47;51.05;;;31.48;;
57067;SDS011;43391;47.448;18.904;2022-11-04T00:55:13;53.70;;;32.80;;
57067;SDS011;43391;47.448;18.904;2022-11-04T00:57:38;52.35;;;31.55;;
57067;SDS011;43391;47.448;18.904;2022-11-04T01:00:03;51.03;;;31.35;;
57067;SDS011;43391;47.448;18.904;2022-11-04T01:02:30;52.78;;;32.20;;
57067;SDS011;43391;47.448;18.904;2022-11-04T01:04:55;56.42;;;30.58;;
57067;SDS011;43391;47.448;18.904;2022-11-04T01:07:20;59.47;;;32.60;;
57067;SDS011;43391;47.448;18.904;2022-11-04T01:09:47;54.70;;;30.92;;
57067;SDS011;43391;47.448;18.904;2022-11-04T01:12:13;52.72;;;31.02;;
57067;SDS011;43391;47.448;18.904;2022-11-04T01:14:38;48.30;;;29.02;;
57067;SDS011;43391;47.448;18.904;2022-11-04T01:17:04;52.15;;;29.42;;
57067;SDS011;43391;47.448;18.904;2022-11-04T01:19:29;52.33;;;29.42;;
57067;SDS011;43391;47.448;18.904;2022-11-04T01:21:54;52.63;;;30.27;;
57067;SDS011;43391;47.448;18.904;2022-11-04T01:24:20;54.33;;;30.63;;
57067;SDS011;43391;47.448;18.904;2022-11-04T01:26:45;51.47;;;31.17;;
57067;SDS011;43391;47.448;18.904;2022-11-04T01:29:11;45.65;;;29.17;;
57067;SDS011;43391;47.448;18.904;2022-11-04T01:31:36;54.35;;;30.38;;
57067;SDS011;43391;47.448;18.904;2022-11-04T01:34:01;56.88;;;32.30;;
57067;SDS011;43391;47.448;18.904;2022-11-04T01:36:27;53.90;;;31.42;;
57067;SDS011;43391;47.448;18.904;2022-11-04T01:38:53;55.03;;;31.17;;
57067;SDS011;43391;47.448;18.904;2022-11-04T01:41:24;50.38;;;30.40;;
57067;SDS011;43391;47.448;18.904;2022-11-04T01:46:33;50.47;;;28.85;;
57067;SDS011;43391;47.448;18.904;2022-11-04T01:49:45;51.45;;;31.02;;
57067;SDS011;43391;47.448;18.904;2022-11-04T01:52:06;54.80;;;29.85;;
57067;SDS011;43391;47.448;18.904;2022-11-04T01:54:34;54.03;;;31.45;;
57067;SDS011;43391;47.448;18.904;2022-11-04T01:57:02;51.70;;;29.63;;
57067;SDS011;43391;47.448;18.904;2022-11-04T01:59:35;53.03;;;30.75;;
57067;SDS011;43391;47.448;18.904;2022-11-04T02:02:03;47.97;;;30.30;;
57067;SDS011;43391;47.448;18.904;2022-11-04T02:04:29;53.08;;;30.85;;
57067;SDS011;43391;47.448;18.904;2022-11-04T02:06:56;56.05;;;31.27;;
57067;SDS011;43391;47.448;18.904;2022-11-04T02:09:25;54.03;;;30.40;;
57067;SDS011;43391;47.448;18.904;2022-11-04T02:11:52;52.40;;;32.00;;
57067;SDS011;43391;47.448;18.904;2022-11-04T02:14:36;54.05;;;29.77;;
57067;SDS011;43391;47.448;18.904;2022-11-04T02:20:00;58.30;;;30.90;;
57067;SDS011;43391;47.448;18.904;2022-11-04T02:25:23;53.70;;;30.90;;
57067;SDS011;43391;47.448;18.904;2022-11-04T02:30:45;59.00;;;33.88;;
57067;SDS011;43391;47.448;18.904;2022-11-04T02:33:24;65.60;;;35.38;;
57067;SDS011;43391;47.448;18.904;2022-11-04T02:43:58;68.03;;;35.20;;
57067;SDS011;43391;47.448;18.904;2022-11-04T02:46:46;59.20;;;34.03;;
57067;SDS011;43391;47.448;18.904;2022-11-04T02:49:23;61.03;;;33.70;;
57067;SDS011;43391;47.448;18.904;2022-11-04T02:52:01;62.03;;;35.28;;
57067;SDS011;43391;47.448;18.904;2022-11-04T02:54:40;66.97;;;36.08;;
57067;SDS011;43391;47.448;18.904;2022-11-04T02:57:14;63.95;;;36.30;;
57067;SDS011;43391;47.448;18.904;2022-11-04T02:59:45;61.72;;;35.78;;
57067;SDS011;43391;47.448;18.904;2022-11-04T03:02:15;59.65;;;34.47;;
57067;SDS011;43391;47.448;18.904;2022-11-04T03:04:45;69.32;;;36.83;;
57067;SDS011;43391;47.448;18.904;2022-11-04T03:07:16;64.47;;;35.65;;
57067;SDS011;43391;47.448;18.904;2022-11-04T03:09:47;59.50;;;34.20;;
57067;SDS011;43391;47.448;18.904;2022-11-04T03:12:18;62.75;;;35.35;;
57067;SDS011;43391;47.448;18.904;2022-11-04T03:14:50;67.55;;;36.20;;
57067;SDS011;43391;47.448;18.904;2022-11-04T03:19:52;66.22;;;36.35;;
57067;SDS011;43391;47.448;18.904;2022-11-04T03:22:24;68.70;;;36.55;;
57067;SDS011;43391;47.448;18.904;2022-11-04T03:24:53;68.72;;;37.55;;
57067;SDS011;43391;47.448;18.904;2022-11-04T03:30:11;65.30;;;36.13;;
57067;SDS011;43391;47.448;18.904;2022-11-04T03:35:23;68.40;;;36.33;;
57067;SDS011;43391;47.448;18.904;2022-11-04T03:37:50;65.85;;;35.58;;
57067;SDS011;43391;47.448;18.904;2022-11-04T03:40:16;65.68;;;34.95;;
57067;SDS011;43391;47.448;18.904;2022-11-04T03:42:49;63.15;;;34.67;;
57067;SDS011;43391;47.448;18.904;2022-11-04T03:45:21;56.55;;;32.85;;
57067;SDS011;43391;47.448;18.904;2022-11-04T03:47:47;58.08;;;33.30;;
57067;SDS011;43391;47.448;18.904;2022-11-04T03:50:19;69.53;;;35.47;;
57067;SDS011;43391;47.448;18.904;2022-11-04T03:52:51;61.78;;;34.40;;
57067;SDS011;43391;47.448;18.904;2022-11-04T03:55:16;64.03;;;35.92;;
57067;SDS011;43391;47.448;18.904;2022-11-04T04:00:17;66.15;;;36.03;;
57067;SDS011;43391;47.448;18.904;2022-11-04T04:14:04;73.80;;;37.95;;
57067;SDS011;43391;47.448;18.904;2022-11-04T04:16:38;77.03;;;40.03;;
57067;SDS011;43391;47.448;18.904;2022-11-04T04:19:10;80.13;;;41.22;;
57067;SDS011;43391;47.448;18.904;2022-11-04T04:21:42;72.60;;;38.30;;
57067;SDS011;43391;47.448;18.904;2022-11-04T04:24:18;73.38;;;40.15;;
57067;SDS011;43391;47.448;18.904;2022-11-04T04:27:06;76.57;;;40.28;;
57067;SDS011;43391;47.448;18.904;2022-11-04T04:29:50;76.78;;;41.10;;
57067;SDS011;43391;47.448;18.904;2022-11-04T04:32:18;80.88;;;42.38;;
57067;SDS011;43391;47.448;18.904;2022-11-04T04:34:46;90.90;;;41.60;;
57067;SDS011;43391;47.448;18.904;2022-11-04T04:37:22;72.20;;;39.45;;
57067;SDS011;43391;47.448;18.904;2022-11-04T04:39:50;73.72;;;41.42;;
57067;SDS011;43391;47.448;18.904;2022-11-04T04:42:37;76.53;;;41.88;;
57067;SDS011;43391;47.448;18.904;2022-11-04T04:45:23;78.93;;;42.20;;
57067;SDS011;43391;47.448;18.904;2022-11-04T04:47:54;75.60;;;41.03;;
57067;SDS011;43391;47.448;18.904;2022-11-04T04:50:21;73.55;;;40.85;;
57067;SDS011;43391;47.448;18.904;2022-11-04T04:52:47;74.88;;;41.95;;
57067;SDS011;43391;47.448;18.904;2022-11-04T04:55:15;79.40;;;43.38;;
57067;SDS011;43391;47.448;18.904;2022-11-04T04:57:41;80.00;;;44.05;;
57067;SDS011;43391;47.448;18.904;2022-11-04T05:00:07;86.28;;;45.53;;
57067;SDS011;43391;47.448;18.904;2022-11-04T05:02:36;83.35;;;44.72;;
57067;SDS011;43391;47.448;18.904;2022-11-04T05:05:01;81.72;;;45.28;;
57067;SDS011;43391;47.448;18.904;2022-11-04T05:07:27;87.40;;;45.90;;
57067;SDS011;43391;47.448;18.904;2022-11-04T05:09:53;82.50;;;47.00;;
57067;SDS011;43391;47.448;18.904;2022-11-04T05:12:18;86.45;;;45.08;;
57067;SDS011;43391;47.448;18.904;2022-11-04T05:14:44;87.72;;;47.63;;
57067;SDS011;43391;47.448;18.904;2022-11-04T05:17:09;88.15;;;47.28;;
57067;SDS011;43391;47.448;18.904;2022-11-04T05:19:35;89.80;;;49.20;;
57067;SDS011;43391;47.448;18.904;2022-11-04T05:22:00;90.30;;;49.25;;
57067;SDS011;43391;47.448;18.904;2022-11-04T05:24:25;95.72;;;49.40;;
57067;SDS011;43391;47.448;18.904;2022-11-04T05:26:51;91.70;;;48.53;;
57067;SDS011;43391;47.448;18.904;2022-11-04T05:29:16;87.97;;;46.80;;
57067;SDS011;43391;47.448;18.904;2022-11-04T05:31:42;93.13;;;46.80;;
57067;SDS011;43391;47.448;18.904;2022-11-04T05:34:11;93.43;;;48.10;;
57067;SDS011;43391;47.448;18.904;2022-11-04T05:39:02;86.90;;;47.25;;
57067;SDS011;43391;47.448;18.904;2022-11-04T05:41:28;85.05;;;45.47;;
57067;SDS011;43391;47.448;18.904;2022-11-04T05:43:57;77.90;;;43.53;;
57067;SDS011;43391;47.448;18.904;2022-11-04T05:46:24;81.50;;;43.58;;
57067;SDS011;43391;47.448;18.904;2022-11-04T05:48:50;87.72;;;44.95;;
57067;SDS011;43391;47.448;18.904;2022-11-04T05:51:18;89.30;;;46.40;;
57067;SDS011;43391;47.448;18.904;2022-11-04T05:53:45;82.88;;;44.75;;
57067;SDS011;43391;47.448;18.904;2022-11-04T05:56:11;89.63;;;46.78;;
57067;SDS011;43391;47.448;18.904;2022-11-04T05:58:36;90.95;;;46.65;;
57067;SDS011;43391;47.448;18.904;2022-11-04T06:03:49;93.75;;;47.67;;
57067;SDS011;43391;47.448;18.904;2022-11-04T06:06:15;92.97;;;46.38;;
57067;SDS011;43391;47.448;18.904;2022-11-04T06:08:40;91.47;;;48.08;;
57067;SDS011;43391;47.448;18.904;2022-11-04T06:11:06;88.88;;;47.53;;
57067;SDS011;43391;47.448;18.904;2022-11-04T06:13:31;90.05;;;48.97;;
57067;SDS011;43391;47.448;18.904;2022-11-04T06:15:56;94.40;;;49.33;;
57067;SDS011;43391;47.448;18.904;2022-11-04T06:18:22;91.05;;;47.88;;
57067;SDS011;43391;47.448;18.904;2022-11-04T06:20:47;88.68;;;45.95;;
57067;SDS011;43391;47.448;18.904;2022-11-04T06:23:12;91.15;;;46.60;;
57067;SDS011;43391;47.448;18.904;2022-11-04T06:25:38;86.60;;;45.90;;
57067;SDS011;43391;47.448;18.904;2022-11-04T06:28:03;86.97;;;43.75;;
57067;SDS011;43391;47.448;18.904;2022-11-04T06:30:29;89.82;;;45.35;;
57067;SDS011;43391;47.448;18.904;2022-11-04T06:32:54;95.90;;;49.50;;
57067;SDS011;43391;47.448;18.904;2022-11-04T06:35:19;87.63;;;46.10;;
57067;SDS011;43391;47.448;18.904;2022-11-04T06:37:45;94.93;;;47.58;;
57067;SDS011;43391;47.448;18.904;2022-11-04T06:40:10;91.70;;;47.75;;
57067;SDS011;43391;47.448;18.904;2022-11-04T06:42:36;89.53;;;44.90;;
57067;SDS011;43391;47.448;18.904;2022-11-04T06:45:01;88.25;;;45.90;;
57067;SDS011;43391;47.448;18.904;2022-11-04T06:47:26;91.63;;;46.38;;
57067;SDS011;43391;47.448;18.904;2022-11-04T06:49:52;91.00;;;46.83;;
57067;SDS011;43391;47.448;18.904;2022-11-04T06:52:17;96.18;;;48.22;;
57067;SDS011;43391;47.448;18.904;2022-11-04T06:54:42;97.13;;;47.30;;
57067;SDS011;43391;47.448;18.904;2022-11-04T06:57:11;94.97;;;49.03;;
57067;SDS011;43391;47.448;18.904;2022-11-04T06:59:36;106.40;;;52.37;;
57067;SDS011;43391;47.448;18.904;2022-11-04T07:02:02;116.75;;;54.95;;
57067;SDS011;43391;47.448;18.904;2022-11-04T07:04:27;105.97;;;55.25;;
57067;SDS011;43391;47.448;18.904;2022-11-04T07:06:52;117.05;;;53.25;;
57067;SDS011;43391;47.448;18.904;2022-11-04T07:09:18;115.10;;;55.72;;
57067;SDS011;43391;47.448;18.904;2022-11-04T07:11:43;101.63;;;50.95;;
57067;SDS011;43391;47.448;18.904;2022-11-04T07:14:09;111.20;;;52.17;;
57067;SDS011;43391;47.448;18.904;2022-11-04T07:16:35;114.15;;;53.33;;
57067;SDS011;43391;47.448;18.904;2022-11-04T07:19:01;105.97;;;51.72;;
57067;SDS011;43391;47.448;18.904;2022-11-04T07:21:27;107.32;;;52.83;;
57067;SDS011;43391;47.448;18.904;2022-11-04T07:23:52;106.82;;;53.42;;
57067;SDS011;43391;47.448;18.904;2022-11-04T07:26:18;111.25;;;52.80;;
57067;SDS011;43391;47.448;18.904;2022-11-04T07:28:44;98.45;;;49.25;;
57067;SDS011;43391;47.448;18.904;2022-11-04T07:31:10;94.10;;;48.85;;
57067;SDS011;43391;47.448;18.904;2022-11-04T07:33:36;96.65;;;49.42;;
57067;SDS011;43391;47.448;18.904;2022-11-04T07:36:03;102.50;;;49.88;;
57067;SDS011;43391;47.448;18.904;2022-11-04T07:38:29;95.30;;;49.70;;
57067;SDS011;43391;47.448;18.904;2022-11-04T07:40:56;98.95;;;49.83;;
57067;SDS011;43391;47.448;18.904;2022-11-04T07:43:21;95.93;;;48.80;;
57067;SDS011;43391;47.448;18.904;2022-11-04T07:45:47;92.85;;;50.38;;
57067;SDS011;43391;47.448;18.904;2022-11-04T07:48:23;101.00;;;50.22;;
57067;SDS011;43391;47.448;18.904;2022-11-04T07:50:48;85.72;;;46.20;;
57067;SDS011;43391;47.448;18.904;2022-11-04T07:53:14;89.63;;;47.60;;
57067;SDS011;43391;47.448;18.904;2022-11-04T07:55:39;97.97;;;50.50;;
57067;SDS011;43391;47.448;18.904;2022-11-04T07:58:05;95.55;;;50.85;;
57067;SDS011;43391;47.448;18.904;2022-11-04T08:00:33;91.68;;;49.85;;
57067;SDS011;43391;47.448;18.904;2022-11-04T08:02:59;94.43;;;49.17;;
57067;SDS011;43391;47.448;18.904;2022-11-04T08:05:24;90.75;;;48.50;;
57067;SDS011;43391;47.448;18.904;2022-11-04T08:07:49;92.82;;;49.50;;
57067;SDS011;43391;47.448;18.904;2022-11-04T08:10:15;98.10;;;51.10;;
57067;SDS011;43391;47.448;18.904;2022-11-04T08:12:40;93.07;;;50.92;;
57067;SDS011;43391;47.448;18.904;2022-11-04T08:15:06;94.05;;;50.20;;
57067;SDS011;43391;47.448;18.904;2022-11-04T08:17:31;98.30;;;51.00;;
57067;SDS011;43391;47.448;18.904;2022-11-04T08:19:57;92.53;;;50.67;;
57067;SDS011;43391;47.448;18.904;2022-11-04T08:22:22;91.75;;;50.53;;
57067;SDS011;43391;47.448;18.904;2022-11-04T08:24:48;103.20;;;52.22;;
57067;SDS011;43391;47.448;18.904;2022-11-04T08:27:14;101.18;;;51.50;;
57067;SDS011;43391;47.448;18.904;2022-11-04T08:29:39;94.80;;;51.60;;
57067;SDS011;43391;47.448;18.904;2022-11-04T08:32:05;93.00;;;50.97;;
57067;SDS011;43391;47.448;18.904;2022-11-04T08:34:32;96.95;;;53.10;;
57067;SDS011;43391;47.448;18.904;2022-11-04T08:36:57;90.55;;;51.35;;
57067;SDS011;43391;47.448;18.904;2022-11-04T08:39:24;91.25;;;51.20;;
57067;SDS011;43391;47.448;18.904;2022-11-04T08:41:50;98.80;;;52.45;;
57067;SDS011;43391;47.448;18.904;2022-11-04T08:44:17;87.78;;;52.25;;
57067;SDS011;43391;47.448;18.904;2022-11-04T08:46:44;88.20;;;51.15;;
57067;SDS011;43391;47.448;18.904;2022-11-04T08:49:10;95.97;;;52.22;;
57067;SDS011;43391;47.448;18.904;2022-11-04T08:51:37;95.05;;;52.88;;
57067;SDS011;43391;47.448;18.904;2022-11-04T08:56:31;90.18;;;52.50;;
57067;SDS011;43391;47.448;18.904;2022-11-04T08:58:59;95.18;;;53.05;;
57067;SDS011;43391;47.448;18.904;2022-11-04T09:01:26;90.55;;;51.47;;
57067;SDS011;43391;47.448;18.904;2022-11-04T09:03:53;92.75;;;51.58;;
57067;SDS011;43391;47.448;18.904;2022-11-04T09:06:20;90.20;;;52.60;;
57067;SDS011;43391;47.448;18.904;2022-11-04T09:08:48;106.95;;;53.80;;
57067;SDS011;43391;47.448;18.904;2022-11-04T09:11:14;94.75;;;52.47;;
57067;SDS011;43391;47.448;18.904;2022-11-04T09:13:40;93.82;;;50.30;;
57067;SDS011;43391;47.448;18.904;2022-11-04T09:16:07;88.70;;;51.85;;
57067;SDS011;43391;47.448;18.904;2022-11-04T09:18:34;88.60;;;50.13;;
57067;SDS011;43391;47.448;18.904;2022-11-04T09:20:59;91.60;;;49.67;;
57067;SDS011;43391;47.448;18.904;2022-11-04T09:23:26;94.57;;;49.95;;
57067;SDS011;43391;47.448;18.904;2022-11-04T09:25:52;92.20;;;51.22;;
57067;SDS011;43391;47.448;18.904;2022-11-04T09:28:17;86.75;;;50.83;;
57067;SDS011;43391;47.448;18.904;2022-11-04T09:30:42;90.47;;;49.70;;
57067;SDS011;43391;47.448;18.904;2022-11-04T09:33:08;85.72;;;49.17;;
57067;SDS011;43391;47.448;18.904;2022-11-04T09:35:34;83.32;;;47.75;;
57067;SDS011;43391;47.448;18.904;2022-11-04T09:37:59;82.90;;;49.00;;
57067;SDS011;43391;47.448;18.904;2022-11-04T09:40:26;86.88;;;49.95;;
57067;SDS011;43391;47.448;18.904;2022-11-04T09:45:44;84.43;;;49.17;;
57067;SDS011;43391;47.448;18.904;2022-11-04T09:48:24;85.57;;;49.33;;
57067;SDS011;43391;47.448;18.904;2022-11-04T09:50:55;90.18;;;51.95;;
57067;SDS011;43391;47.448;18.904;2022-11-04T09:53:26;89.15;;;50.53;;
57067;SDS011;43391;47.448;18.904;2022-11-04T09:56:02;103.22;;;54.03;;
57067;SDS011;43391;47.448;18.904;2022-11-04T09:58:36;95.93;;;53.13;;
57067;SDS011;43391;47.448;18.904;2022-11-04T10:01:05;93.15;;;53.33;;
57067;SDS011;43391;47.448;18.904;2022-11-04T10:09:47;95.63;;;54.17;;
57067;SDS011;43391;47.448;18.904;2022-11-04T10:18:23;101.32;;;56.55;;
57067;SDS011;43391;47.448;18.904;2022-11-04T10:24:06;95.05;;;54.60;;
57067;SDS011;43391;47.448;18.904;2022-11-04T10:29:12;103.25;;;55.40;;
57067;SDS011;43391;47.448;18.904;2022-11-04T10:31:40;91.82;;;53.70;;
57067;SDS011;43391;47.448;18.904;2022-11-04T10:34:20;89.85;;;54.47;;
57067;SDS011;43391;47.448;18.904;2022-11-04T10:36:52;94.13;;;54.08;;
57067;SDS011;43391;47.448;18.904;2022-11-04T10:39:26;96.10;;;56.60;;
57067;SDS011;43391;47.448;18.904;2022-11-04T10:41:59;93.07;;;55.05;;
57067;SDS011;43391;47.448;18.904;2022-11-04T10:44:28;112.50;;;59.33;;
57067;SDS011;43391;47.448;18.904;2022-11-04T10:49:42;94.03;;;58.92;;
57067;SDS011;43391;47.448;18.904;2022-11-04T10:52:08;96.68;;;56.28;;
57067;SDS011;43391;47.448;18.904;2022-11-04T10:54:39;110.30;;;58.38;;
57067;SDS011;43391;47.448;18.904;2022-11-04T10:57:07;111.03;;;58.13;;
57067;SDS011;43391;47.448;18.904;2022-11-04T11:07:47;123.45;;;65.72;;
57067;SDS011;43391;47.448;18.904;2022-11-04T11:10:18;130.25;;;68.22;;
57067;SDS011;43391;47.448;18.904;2022-11-04T11:12:50;102.88;;;58.40;;
57067;SDS011;43391;47.448;18.904;2022-11-04T11:17:59;104.38;;;58.33;;
57067;SDS011;43391;47.448;18.904;2022-11-04T11:20:48;88.38;;;55.50;;
57067;SDS011;43391;47.448;18.904;2022-11-04T11:23:31;86.03;;;54.60;;
57067;SDS011;43391;47.448;18.904;2022-11-04T11:25:57;89.57;;;54.60;;
57067;SDS011;43391;47.448;18.904;2022-11-04T11:28:23;97.82;;;59.50;;
57067;SDS011;43391;47.448;18.904;2022-11-04T11:35:47;92.32;;;54.28;;
57067;SDS011;43391;47.448;18.904;2022-11-04T11:38:17;91.55;;;51.95;;
57067;SDS011;43391;47.448;18.904;2022-11-04T11:40:47;94.47;;;56.35;;
57067;SDS011;43391;47.448;18.904;2022-11-04T11:43:29;92.25;;;54.83;;
57067;SDS011;43391;47.448;18.904;2022-11-04T11:45:56;94.60;;;55.13;;
57067;SDS011;43391;47.448;18.904;2022-11-04T11:51:35;94.80;;;56.53;;
57067;SDS011;43391;47.448;18.904;2022-11-04T11:56:36;89.95;;;55.33;;
57067;SDS011;43391;47.448;18.904;2022-11-04T12:02:24;92.13;;;56.90;;
57067;SDS011;43391;47.448;18.904;2022-11-04T12:04:58;100.53;;;58.47;;
57067;SDS011;43391;47.448;18.904;2022-11-04T12:07:47;99.43;;;58.83;;
57067;SDS011;43391;47.448;18.904;2022-11-04T12:10:29;108.40;;;58.65;;
57067;SDS011;43391;47.448;18.904;2022-11-04T12:13:22;98.38;;;57.55;;
57067;SDS011;43391;47.448;18.904;2022-11-04T12:15:53;108.05;;;60.88;;
57067;SDS011;43391;47.448;18.904;2022-11-04T12:21:33;96.88;;;59.53;;
57067;SDS011;43391;47.448;18.904;2022-11-04T12:26:58;107.97;;;59.30;;
57067;SDS011;43391;47.448;18.904;2022-11-04T12:29:39;97.15;;;60.00;;
57067;SDS011;43391;47.448;18.904;2022-11-04T12:45:50;107.85;;;63.67;;
57067;SDS011;43391;47.448;18.904;2022-11-04T12:48:25;107.22;;;63.75;;
57067;SDS011;43391;47.448;18.904;2022-11-04T12:51:07;106.60;;;62.20;;
57067;SDS011;43391;47.448;18.904;2022-11-04T12:53:48;103.50;;;61.97;;
57067;SDS011;43391;47.448;18.904;2022-11-04T12:56:17;108.53;;;62.63;;
57067;SDS011;43391;47.448;18.904;2022-11-04T12:59:05;105.65;;;62.53;;
57067;SDS011;43391;47.448;18.904;2022-11-04T13:04:10;102.82;;;61.97;;
57067;SDS011;43391;47.448;18.904;2022-11-04T13:09:13;112.75;;;64.90;;
57067;SDS011;43391;47.448;18.904;2022-11-04T13:11:50;102.22;;;61.55;;
57067;SDS011;43391;47.448;18.904;2022-11-04T13:14:23;116.78;;;65.00;;
57067;SDS011;43391;47.448;18.904;2022-11-04T13:16:53;104.47;;;63.78;;
57067;SDS011;43391;47.448;18.904;2022-11-04T13:19:28;106.15;;;64.55;;
57067;SDS011;43391;47.448;18.904;2022-11-04T13:22:01;112.20;;;62.60;;
57067;SDS011;43391;47.448;18.904;2022-11-04T13:24:32;105.53;;;61.85;;
57067;SDS011;43391;47.448;18.904;2022-11-04T13:27:03;106.72;;;63.22;;
57067;SDS011;43391;47.448;18.904;2022-11-04T13:29:38;101.25;;;61.95;;
57067;SDS011;43391;47.448;18.904;2022-11-04T13:32:07;111.68;;;63.58;;
57067;SDS011;43391;47.448;18.904;2022-11-04T13:40:05;106.53;;;61.33;;
57067;SDS011;43391;47.448;18.904;2022-11-04T13:45:15;97.95;;;59.60;;
57067;SDS011;43391;47.448;18.904;2022-11-04T13:47:44;105.20;;;60.58;;
57067;SDS011;43391;47.448;18.904;2022-11-04T13:50:27;105.93;;;60.03;;
57067;SDS011;43391;47.448;18.904;2022-11-04T13:52:58;93.72;;;54.45;;
57067;SDS011;43391;47.448;18.904;2022-11-04T13:55:24;100.25;;;58.65;;
57067;SDS011;43391;47.448;18.904;2022-11-04T13:57:59;95.55;;;58.78;;
57067;SDS011;43391;47.448;18.904;2022-11-04T14:00:36;97.30;;;57.08;;
57067;SDS011;43391;47.448;18.904;2022-11-04T14:08:27;96.90;;;59.63;;
57067;SDS011;43391;47.448;18.904;2022-11-04T14:21:20;92.43;;;56.00;;
57067;SDS011;43391;47.448;18.904;2022-11-04T14:23:52;87.75;;;55.50;;
57067;SDS011;43391;47.448;18.904;2022-11-04T14:26:21;89.35;;;53.95;;
57067;SDS011;43391;47.448;18.904;2022-11-04T14:29:06;97.13;;;56.55;;
57067;SDS011;43391;47.448;18.904;2022-11-04T14:31:38;94.55;;;55.47;;
57067;SDS011;43391;47.448;18.904;2022-11-04T14:34:06;82.85;;;53.17;;
57067;SDS011;43391;47.448;18.904;2022-11-04T14:36:47;83.55;;;53.33;;
57067;SDS011;43391;47.448;18.904;2022-11-04T14:39:23;90.28;;;51.67;;
57067;SDS011;43391;47.448;18.904;2022-11-04T14:47:05;86.22;;;52.78;;
57067;SDS011;43391;47.448;18.904;2022-11-04T14:49:35;78.38;;;48.00;;
57067;SDS011;43391;47.448;18.904;2022-11-04T14:54:48;71.78;;;47.17;;
57067;SDS011;43391;47.448;18.904;2022-11-04T14:57:20;78.20;;;49.30;;
57067;SDS011;43391;47.448;18.904;2022-11-04T14:59:47;74.35;;;48.95;;
57067;SDS011;43391;47.448;18.904;2022-11-04T15:02:14;74.07;;;47.85;;
57067;SDS011;43391;47.448;18.904;2022-11-04T15:05:00;73.65;;;47.08;;
57067;SDS011;43391;47.448;18.904;2022-11-04T15:10:24;75.72;;;47.92;;
57067;SDS011;43391;47.448;18.904;2022-11-04T15:12:56;72.43;;;48.35;;
57067;SDS011;43391;47.448;18.904;2022-11-04T15:18:22;80.82;;;47.60;;
57067;SDS011;43391;47.448;18.904;2022-11-04T15:20:52;72.13;;;48.00;;
57067;SDS011;43391;47.448;18.904;2022-11-04T15:23:29;70.60;;;47.75;;
57067;SDS011;43391;47.448;18.904;2022-11-04T15:25:57;73.03;;;45.28;;
57067;SDS011;43391;47.448;18.904;2022-11-04T15:28:30;74.05;;;46.53;;
57067;SDS011;43391;47.448;18.904;2022-11-04T15:31:13;70.93;;;47.60;;
57067;SDS011;43391;47.448;18.904;2022-11-04T15:33:43;82.25;;;48.05;;
57067;SDS011;43391;47.448;18.904;2022-11-04T15:36:12;78.35;;;47.67;;
57067;SDS011;43391;47.448;18.904;2022-11-04T15:38:43;72.97;;;45.42;;
57067;SDS011;43391;47.448;18.904;2022-11-04T15:41:11;72.15;;;45.85;;
57067;SDS011;43391;47.448;18.904;2022-11-04T15:43:58;76.97;;;47.22;;
57067;SDS011;43391;47.448;18.904;2022-11-04T15:46:24;89.78;;;56.13;;
57067;SDS011;43391;47.448;18.904;2022-11-04T15:48:59;86.65;;;53.47;;
57067;SDS011;43391;47.448;18.904;2022-11-04T15:51:26;77.32;;;48.03;;
57067;SDS011;43391;47.448;18.904;2022-11-04T15:54:01;77.80;;;48.83;;
57067;SDS011;43391;47.448;18.904;2022-11-04T15:56:41;67.45;;;45.70;;
57067;SDS011;43391;47.448;18.904;2022-11-04T15:59:13;70.57;;;45.13;;
57067;SDS011;43391;47.448;18.904;2022-11-04T16:01:43;68.93;;;44.90;;
57067;SDS011;43391;47.448;18.904;2022-11-04T16:04:10;64.00;;;44.35;;
57067;SDS011;43391;47.448;18.904;2022-11-04T16:06:37;70.55;;;45.60;;
57067;SDS011;43391;47.448;18.904;2022-11-04T16:11:33;66.43;;;42.75;;
57067;SDS011;43391;47.448;18.904;2022-11-04T16:16:59;74.65;;;47.45;;
57067;SDS011;43391;47.448;18.904;2022-11-04T16:19:25;68.72;;;43.58;;
57067;SDS011;43391;47.448;18.904;2022-11-04T16:22:03;72.97;;;43.80;;
57067;SDS011;43391;47.448;18.904;2022-11-04T16:24:39;65.05;;;42.80;;
57067;SDS011;43391;47.448;18.904;2022-11-04T16:27:07;70.82;;;44.67;;
57067;SDS011;43391;47.448;18.904;2022-11-04T16:29:35;67.07;;;42.53;;
57067;SDS011;43391;47.448;18.904;2022-11-04T16:34:36;72.80;;;44.42;;
57067;SDS011;43391;47.448;18.904;2022-11-04T16:37:02;68.47;;;42.67;;
57067;SDS011;43391;47.448;18.904;2022-11-04T16:39:28;71.43;;;48.22;;
57067;SDS011;43391;47.448;18.904;2022-11-04T16:41:53;69.35;;;44.13;;
57067;SDS011;43391;47.448;18.904;2022-11-04T16:44:21;67.10;;;44.42;;
57067;SDS011;43391;47.448;18.904;2022-11-04T16:46:47;67.50;;;43.22;;
57067;SDS011;43391;47.448;18.904;2022-11-04T16:49:13;66.53;;;43.03;;
57067;SDS011;43391;47.448;18.904;2022-11-04T16:51:40;72.22;;;45.10;;
57067;SDS011;43391;47.448;18.904;2022-11-04T16:54:06;69.43;;;43.25;;
57067;SDS011;43391;47.448;18.904;2022-11-04T16:56:33;68.15;;;42.85;;
57067;SDS011;43391;47.448;18.904;2022-11-04T16:58:58;64.80;;;42.40;;
57067;SDS011;43391;47.448;18.904;2022-11-04T17:01:24;69.03;;;42.95;;
57067;SDS011;43391;47.448;18.904;2022-11-04T17:03:49;67.22;;;42.70;;
57067;SDS011;43391;47.448;18.904;2022-11-04T17:06:15;70.70;;;42.25;;
57067;SDS011;43391;47.448;18.904;2022-11-04T17:08:40;68.80;;;42.78;;